This is the latest recevied weather packets stored in our database for station/object EFHK. If no packets are shown the sender has not sent any weather packets the latest 1 day(s).
| Time | Temp. | Humidity | Pressure | Rain* | Wind** | Luminosity | Snow |
|---|---|---|---|---|---|---|---|
| 1777975400 | 11.67° C | 40% | 1002 hPa | - | 8.49 m/s, 280° | - | - |
| 1777974800 | 11.67° C | 40% | 1002 hPa | - | 8.49 m/s, 280° | - | - |
| 1777974202 | 11.67° C | 50% | 1001 hPa | - | 7.15 m/s, 270° | - | - |
| 1777973601 | 11.67° C | 50% | 1001 hPa | - | 7.15 m/s, 270° | - | - |
| 1777973004 | 11.67° C | 50% | 1001 hPa | - | 7.15 m/s, 270° | - | - |
| 1777972401 | 11.67° C | 50% | 1001 hPa | - | 8.05 m/s, 240° | - | - |
| 1777971803 | 11.67° C | 50% | 1001 hPa | - | 8.05 m/s, 240° | - | - |
| 1777971206 | 11.67° C | 50% | 1001 hPa | - | 8.05 m/s, 240° | - | - |
| 1777970598 | 11.67° C | 46% | 1001 hPa | - | 8.49 m/s, 260° | - | - |
| 1777970005 | 11.67° C | 46% | 1001 hPa | - | 8.49 m/s, 260° | - | - |
| 1777969403 | 11.67° C | 46% | 1001 hPa | - | 8.49 m/s, 260° | - | - |
| 1777968801 | 11.67° C | 50% | 1000 hPa | - | 7.15 m/s, 250° | - | - |
| 1777968203 | 11.67° C | 50% | 1000 hPa | - | 7.15 m/s, 250° | - | - |
| 1777967600 | 11.67° C | 50% | 1000 hPa | - | 7.15 m/s, 250° | - | - |
| 1777967002 | 11.67° C | 54% | 1000 hPa | - | 7.15 m/s, 240° | - | - |
| 1777966399 | 11.67° C | 54% | 1000 hPa | - | 7.15 m/s, 240° | - | - |
| 1777965803 | 11.67° C | 54% | 1000 hPa | - | 7.15 m/s, 240° | - | - |
| 1777965198 | 10.56° C | 62% | 1000 hPa | - | 5.36 m/s, 230° | - | - |
| 1777964601 | 10.56° C | 62% | 1000 hPa | - | 5.36 m/s, 230° | - | - |
| 1777964001 | 10.56° C | 62% | 1000 hPa | - | 5.36 m/s, 230° | - | - |
| 1777963402 | 10° C | 71% | 1000 hPa | - | 5.81 m/s, 230° | - | - |
| 1777962798 | 10° C | 71% | 1000 hPa | - | 5.81 m/s, 230° | - | - |
* Rain since midnight (hover to see other rain measurements)
** Current wind speed in m/s (hover to see current wind gust speed)